ROMMA est une association bénévole à but non lucratif. Votre soutien est indispensable : ADHERER à ROMMA ou FAIRE un DON

Die - (26, Drôme)

Diois (400 m)   Longitude: 5° 21' 55"E   Latitude: 44° 45' 16"N Station partenaire n°159
 

Détail journalier du     <<     >>

Température Precipitation Humidité Pression Vent Dir Rafale Dir. rafale Ensol.
Heure (°C) (mm) (%) (hPa) (km/h) (km/h) (min)
01:00 -2.1095103402SO0
02:00 -2.0096103302SO0
03:00 -2.2095103302SO0
04:00 -2.7095103302SO0
05:00 -2.4096103303SO0
06:00 -3.0095103303SO0
07:00 -3.1095103303SO0
08:00 -3.2095103302S0
09:00 -3.6094103405ONO0
10:00 -1.909610341ONO3ONO40
11:00 0.609510341NNO5NNO50
12:00 2.808910332SE8ONO40
13:00 4.808210322ONO6NO60
14:00 6.307610311OSO6OSO20
15:00 7.30.27510312SE6SO50
16:00 6.607910312SSO5SO0
17:00 4.508510311SSO3SSO0
18:00 1.709210311SSO5SSO0
19:00 1.009310312SSO6SSE0
20:00 0.709410311SO6SO0
21:00 1.609510312SO6SO0
22:00 3.709710312SO8OSO0
23:00 9.108010313NNE13N0
minuit 10.706710316NO18NO0

Graphique du 03-01-2020

 

Serveur OMMA